Stanley, NC (28164)

9:08 AM EDT on August 25, 2016 (GMT -0400)
Abernathy Hardware | | Change Station

Elev 825 ft 35.35 °N, 81.09 °W | Updated 9 days ago

Clear
Clear
84 °F
Feels Like 87 °F
N
2
Wind Variable Wind from SW
Gusts mph

Today
High -- | Low -- °F
--% Chance of Precip.
Yesterday
High -- | Low -- °F
Precip. -- in
Pressure 30.20 in
Visibility 10.0 miles
Clouds Clear
Heat Index 87 °F
Dew Point 67 °F
Humidity 57%
Rainfall in
Snow Depth Not available.
6:51 AM 8:00 PM
Last Quarter, 46% visible
METAR KIPJ 251300Z AUTO 00000KT 10SM CLR 23/20 A3020 RMK AO2 T02290199
Pressure 30.20 in
Visibility 10.0 miles
Clouds Clear
Heat Index 87 °F
Dew Point 67 °F
Humidity 57%
Rainfall in
Snow Depth Not available.
6:51 AM 8:00 PM
Last Quarter, 46% visible
METAR KIPJ 251300Z AUTO 00000KT 10SM CLR 23/20 A3020 RMK AO2 T02290199

10-Day Weather Forecast

Almanac

Astronomy

Aug. 25, 2016 Rise Set
Actual Time
Civil Twilight
Nautical Twilight
Astronomical Twilight
Moon
Length of Visible Light
Length of Day
Tomorrow will be .
, % of the Moon is Illuminated

Today's Extremes

State Highs State Lows

Community

WunderPhotos

Upload Photos

1,934,837 photos uploaded!

WunderBlog® & News

Nearby

Air Quality

  Air Quality AQ Index Pollutant
Not available.

Snow Depth

Station Depth Elevation

Earthquake Activity

City Distance Mag. Time & Date
Minimum magnitude displayed is 2.5.

Coastal Water Temperatures

Place Temperature

Stations

Nearby Weather Stations

Station Location Temp. Windchill Dew Point Humidity Wind Precip. Elev Updated Type
                   

Watches & Warnings

There are currently no watches in effect.